Time;durP1;ratioP1;P1;durP2;ratioP2;P2;SDS_P1;SDS_P2;PMS_P1;PMS_P2;Temp;Humidity;BMP_temperature;BMP_pressure;BME280_temperature;BME280_humidity;BME280_pressure;Samples;Min_cycle;Max_cycle;Signal;HPM_P1;HPM_P2
2022/04/27 00:01:15;;;;;;;11.68;6.35;;;;;;;;;;5013852;28;20033;-88
2022/04/27 00:03:42;;;;;;;22.65;9.82;;;;;;;;;;5014492;28;20041;-87
2022/04/27 00:06:09;;;;;;;16.60;8.35;;;;;;;;;;5018143;28;20068;-88
2022/04/27 00:08:35;;;;;;;18.55;9.60;;;;;;;;;;5011210;28;20036;-88
2022/04/27 00:11:03;;;;;;;17.55;9.57;;;;;;;;;;5029703;28;20370;-88
2022/04/27 00:13:30;;;;;;;14.40;8.75;;;;;;;;;;5017498;28;20029;-88
2022/04/27 00:15:58;;;;;;;16.17;9.27;;;;;;;;;;5018570;28;20025;-87
2022/04/27 00:18:24;;;;;;;19.40;10.15;;;;;;;;;;5028954;28;20036;-87
2022/04/27 00:20:59;;;;;;;18.38;9.90;;;;;;;;;;5024597;28;20038;-87
2022/04/27 00:23:26;;;;;;;17.40;11.05;;;;;;;;;;5010866;28;20025;-87
2022/04/27 00:25:53;;;;;;;17.98;11.18;;;;;;;;;;5018217;28;20132;-88
2022/04/27 00:28:26;;;;;;;17.63;10.80;;;;;;;;;;5017448;28;20044;-87
2022/04/27 00:30:53;;;;;;;18.23;10.10;;;;;;;;;;5016473;28;20095;-87
2022/04/27 00:33:19;;;;;;;18.85;9.18;;;;;;;;;;5016475;28;20103;-87
2022/04/27 00:36:15;;;;;;;19.77;9.15;;;;;;;;;;5013890;28;20051;-87
2022/04/27 00:38:42;;;;;;;17.33;9.32;;;;;;;;;;5017257;28;20079;-90
2022/04/27 00:41:12;;;;;;;18.77;10.13;;;;;;;;;;5018217;28;20026;-89
2022/04/27 00:43:40;;;;;;;18.05;10.05;;;;;;;;;;5018789;28;20033;-89
2022/04/27 00:46:17;;;;;;;18.05;9.48;;;;;;;;;;5030667;28;20036;-89
2022/04/27 00:48:44;;;;;;;14.48;8.95;;;;;;;;;;5036363;28;20523;-89
2022/04/27 00:51:19;;;;;;;15.45;8.48;;;;;;;;;;5020765;28;20031;-89
2022/04/27 00:53:46;;;;;;;19.27;8.80;;;;;;;;;;5012292;28;20037;-88
2022/04/27 00:56:16;;;;;;;14.07;7.53;;;;;;;;;;5014600;28;20034;-87
2022/04/27 00:58:43;;;;;;;17.23;8.52;;;;;;;;;;5031673;28;20036;-87
2022/04/27 01:01:13;;;;;;;14.48;8.48;;;;;;;;;;5009103;28;20408;-87
2022/04/27 01:03:40;;;;;;;18.08;9.15;;;;;;;;;;5026192;28;20033;-88
2022/04/27 01:06:07;;;;;;;18.63;9.60;;;;;;;;;;5017850;28;20026;-87
2022/04/27 01:08:33;;;;;;;16.80;9.52;;;;;;;;;;5013875;28;20030;-88
2022/04/27 01:11:00;;;;;;;14.93;8.88;;;;;;;;;;5016154;28;20116;-88
2022/04/27 01:13:29;;;;;;;21.65;9.32;;;;;;;;;;5028507;28;20025;-88
2022/04/27 01:15:56;;;;;;;22.20;10.10;;;;;;;;;;5017874;28;20527;-89
2022/04/27 01:18:22;;;;;;;18.95;10.07;;;;;;;;;;5006817;28;20481;-88
2022/04/27 01:20:50;;;;;;;16.00;9.27;;;;;;;;;;5017161;28;20033;-88
2022/04/27 01:23:17;;;;;;;17.10;9.18;;;;;;;;;;5013961;28;20445;-90
2022/04/27 01:26:05;;;;;;;16.65;8.02;;;;;;;;;;5027967;28;20049;-88
2022/04/27 01:28:35;;;;;;;14.15;8.35;;;;;;;;;;5034631;28;20041;-87
2022/04/27 01:31:08;;;;;;;13.38;7.68;;;;;;;;;;5024995;28;20044;-88
2022/04/27 01:33:44;;;;;;;21.40;10.07;;;;;;;;;;5029331;28;20068;-88
2022/04/27 01:36:13;;;;;;;21.58;10.85;;;;;;;;;;5030127;28;20029;-87
2022/04/27 01:38:45;;;;;;;27.02;16.00;;;;;;;;;;5032503;28;20136;-87
2022/04/27 01:41:11;;;;;;;42.95;21.63;;;;;;;;;;5048124;28;20145;-88
2022/04/27 01:43:39;;;;;;;53.75;22.85;;;;;;;;;;5032320;28;20029;-89
2022/04/27 01:46:05;;;;;;;40.97;21.52;;;;;;;;;;5034430;28;20057;-89
2022/04/27 01:48:35;;;;;;;33.28;16.42;;;;;;;;;;5036104;28;20086;-87
2022/04/27 01:51:01;;;;;;;23.35;12.05;;;;;;;;;;5033481;28;20025;-87
2022/04/27 01:56:22;;;;;;;15.15;8.65;;;;;;;;;;5045348;28;20072;-88
2022/04/27 01:59:12;;;;;;;19.45;9.38;;;;;;;;;;5035551;28;20482;-87
2022/04/27 02:02:03;;;;;;;26.67;13.60;;;;;;;;;;5000885;28;20051;-88
2022/04/27 02:04:31;;;;;;;26.13;12.63;;;;;;;;;;4986389;28;20420;-87
2022/04/27 02:06:57;;;;;;;28.02;12.98;;;;;;;;;;5026857;28;20029;-86
2022/04/27 02:09:25;;;;;;;28.20;11.85;;;;;;;;;;5029383;28;20043;-87
2022/04/27 02:11:51;;;;;;;24.25;10.82;;;;;;;;;;5036807;28;20488;-88
2022/04/27 02:14:18;;;;;;;22.73;11.40;;;;;;;;;;4686664;28;10000610;-88
2022/04/27 02:16:44;;;;;;;27.88;11.55;;;;;;;;;;5033223;28;20037;-87
2022/04/27 02:19:10;;;;;;;22.38;11.05;;;;;;;;;;5031447;28;20112;-87
2022/04/27 02:21:36;;;;;;;20.33;9.70;;;;;;;;;;5016465;28;20041;-87
2022/04/27 02:24:03;;;;;;;24.70;10.82;;;;;;;;;;5049866;28;20076;-88
2022/04/27 02:26:29;;;;;;;18.98;8.48;;;;;;;;;;5041702;28;20068;-87
2022/04/27 02:28:55;;;;;;;18.27;7.28;;;;;;;;;;5037715;28;20084;-88
2022/04/27 02:31:22;;;;;;;13.95;7.35;;;;;;;;;;5035174;28;20487;-87
2022/04/27 02:33:49;;;;;;;14.68;7.75;;;;;;;;;;5035641;28;20033;-88
2022/04/27 02:36:15;;;;;;;14.68;8.38;;;;;;;;;;5048701;28;20061;-88
2022/04/27 02:38:44;;;;;;;23.75;9.98;;;;;;;;;;5037433;28;20439;-88
2022/04/27 02:41:10;;;;;;;17.55;8.95;;;;;;;;;;5030479;28;20037;-89
2022/04/27 02:43:37;;;;;;;20.40;9.63;;;;;;;;;;5027271;28;20029;-87
2022/04/27 02:46:03;;;;;;;22.77;10.07;;;;;;;;;;5038082;28;20033;-88
2022/04/27 02:48:29;;;;;;;21.95;11.55;;;;;;;;;;5057181;28;20037;-88
2022/04/27 02:53:43;;;;;;;23.17;11.75;;;;;;;;;;5046723;28;20056;-87
2022/04/27 02:56:10;;;;;;;21.40;12.27;;;;;;;;;;5034200;28;20087;-87
2022/04/27 02:58:37;;;;;;;26.15;13.75;;;;;;;;;;5037175;28;21057;-88
2022/04/27 03:01:03;;;;;;;23.02;13.02;;;;;;;;;;5040108;28;20072;-87
2022/04/27 03:03:29;;;;;;;22.23;11.95;;;;;;;;;;5043206;28;20055;-88
2022/04/27 03:05:56;;;;;;;22.38;12.20;;;;;;;;;;5044566;28;20037;-88
2022/04/27 03:08:25;;;;;;;22.80;13.38;;;;;;;;;;5063757;28;20037;-88
2022/04/27 03:10:51;;;;;;;24.90;14.65;;;;;;;;;;5051422;28;20496;-88
2022/04/27 03:13:18;;;;;;;25.05;13.02;;;;;;;;;;5037074;28;20392;-88
2022/04/27 03:15:44;;;;;;;21.88;12.75;;;;;;;;;;5030149;28;20121;-89
2022/04/27 03:18:19;;;;;;;23.83;11.55;;;;;;;;;;5034353;28;20031;-88
2022/04/27 03:20:47;;;;;;;23.38;10.68;;;;;;;;;;5033367;28;20036;-89
2022/04/27 03:23:14;;;;;;;18.33;10.52;;;;;;;;;;5034251;28;20033;-87
2022/04/27 03:25:41;;;;;;;17.83;11.63;;;;;;;;;;5014842;28;20053;-86
2022/04/27 03:28:08;;;;;;;20.67;11.90;;;;;;;;;;5011086;28;20515;-87
2022/04/27 03:30:40;;;;;;;20.63;10.48;;;;;;;;;;5032541;28;20038;-86
2022/04/27 03:33:08;;;;;;;19.17;10.85;;;;;;;;;;5030548;28;20068;-85
2022/04/27 03:35:34;;;;;;;23.45;14.10;;;;;;;;;;5009692;28;20100;-87
2022/04/27 03:38:01;;;;;;;33.13;16.23;;;;;;;;;;5009747;28;20026;-88
2022/04/27 03:40:28;;;;;;;41.42;22.20;;;;;;;;;;5026392;28;20025;-88
2022/04/27 03:42:55;;;;;;;55.95;32.05;;;;;;;;;;5001009;28;20465;-88
2022/04/27 03:45:21;;;;;;;54.17;32.58;;;;;;;;;;5013474;28;20496;-89
2022/04/27 03:47:48;;;;;;;52.53;30.40;;;;;;;;;;5010010;28;20029;-89
2022/04/27 03:50:15;;;;;;;43.05;27.38;;;;;;;;;;5015991;28;20439;-89
2022/04/27 03:52:46;;;;;;;56.17;34.22;;;;;;;;;;5017915;28;20041;-88
2022/04/27 03:55:12;;;;;;;32.08;18.05;;;;;;;;;;5010565;28;20041;-90
2022/04/27 03:57:52;;;;;;;33.78;18.83;;;;;;;;;;5021090;28;20030;-91
2022/04/27 04:00:18;;;;;;;25.40;14.52;;;;;;;;;;5008559;28;20032;-91
2022/04/27 04:02:45;;;;;;;27.70;14.75;;;;;;;;;;5016553;28;20033;-90
2022/04/27 04:05:12;;;;;;;19.90;8.63;;;;;;;;;;5014011;28;20076;-91
2022/04/27 04:07:39;;;;;;;17.40;8.55;;;;;;;;;;5016580;28;20392;-89
2022/04/27 04:10:07;;;;;;;22.10;9.65;;;;;;;;;;5038648;28;20037;-89
2022/04/27 04:12:33;;;;;;;14.95;7.75;;;;;;;;;;5013298;28;20041;-90
2022/04/27 04:15:14;;;;;;;13.48;8.52;;;;;;;;;;5016695;28;20034;-90
2022/04/27 04:17:47;;;;;;;15.93;8.57;;;;;;;;;;5020735;28;20507;-91
2022/04/27 04:20:19;;;;;;;19.98;10.48;;;;;;;;;;5010836;28;20038;-90
2022/04/27 04:22:46;;;;;;;20.08;10.60;;;;;;;;;;5014372;28;20073;-90
2022/04/27 04:30:51;;;;;;;18.23;10.52;;;;;;;;;;5034599;28;20416;-91
2022/04/27 04:33:22;;;;;;;14.73;8.88;;;;;;;;;;5013874;28;20033;-90
2022/04/27 04:35:48;;;;;;;14.45;8.50;;;;;;;;;;5022076;28;20065;-90
2022/04/27 04:38:18;;;;;;;14.63;9.10;;;;;;;;;;5016244;28;20025;-91
2022/04/27 04:40:45;;;;;;;17.25;9.73;;;;;;;;;;5011450;28;20156;-90
2022/04/27 04:43:13;;;;;;;17.67;10.23;;;;;;;;;;5011918;28;20041;-90
2022/04/27 04:45:41;;;;;;;16.88;9.55;;;;;;;;;;5018185;28;20033;-91
2022/04/27 04:48:08;;;;;;;25.90;12.00;;;;;;;;;;5010027;28;20032;-91
2022/04/27 04:50:36;;;;;;;21.38;13.13;;;;;;;;;;5010292;28;20121;-91
2022/04/27 04:53:02;;;;;;;32.55;14.07;;;;;;;;;;5015112;28;20057;-91
2022/04/27 04:55:47;;;;;;;27.35;13.50;;;;;;;;;;5017564;28;20088;-91
2022/04/27 04:58:13;;;;;;;25.00;11.07;;;;;;;;;;5032313;28;20036;-91
2022/04/27 05:00:40;;;;;;;38.50;22.30;;;;;;;;;;5014998;28;20034;-91
2022/04/27 05:03:13;;;;;;;24.70;15.45;;;;;;;;;;5032650;28;20091;-90
2022/04/27 05:05:40;;;;;;;30.63;15.55;;;;;;;;;;5015651;28;20511;-91
2022/04/27 05:08:12;;;;;;;23.63;14.48;;;;;;;;;;5015982;28;20037;-91
2022/04/27 05:10:38;;;;;;;25.77;13.95;;;;;;;;;;5010908;28;20126;-90
2022/04/27 05:13:21;;;;;;;22.50;13.32;;;;;;;;;;5015345;28;20037;-91
2022/04/27 05:15:48;;;;;;;25.13;18.85;;;;;;;;;;5029322;28;22013;-88
2022/04/27 05:18:17;;;;;;;18.08;11.13;;;;;;;;;;5006962;28;20706;-89
2022/04/27 05:20:44;;;;;;;19.25;9.95;;;;;;;;;;5015401;28;20037;-88
2022/04/27 05:23:13;;;;;;;22.80;10.82;;;;;;;;;;5015239;28;20120;-88
2022/04/27 05:25:40;;;;;;;21.20;10.57;;;;;;;;;;5011201;28;20701;-88
2022/04/27 05:28:08;;;;;;;16.73;9.68;;;;;;;;;;5012166;28;20392;-88
2022/04/27 05:33:30;;;;;;;130.32;34.80;;;;;;;;;;5029596;28;20148;-88
2022/04/27 05:35:57;;;;;;;47.67;16.67;;;;;;;;;;5024425;28;20108;-88
2022/04/27 05:38:23;;;;;;;26.08;13.02;;;;;;;;;;5011376;28;20032;-87
2022/04/27 05:40:49;;;;;;;24.25;12.32;;;;;;;;;;5011748;28;20185;-86
2022/04/27 05:43:18;;;;;;;16.48;9.55;;;;;;;;;;5014354;28;20123;-87
2022/04/27 05:45:45;;;;;;;18.42;11.15;;;;;;;;;;5013053;28;20080;-87
2022/04/27 05:48:12;;;;;;;21.38;11.10;;;;;;;;;;5030846;28;20041;-87
2022/04/27 05:50:40;;;;;;;15.75;7.60;;;;;;;;;;5014584;28;20033;-87
2022/04/27 05:53:06;;;;;;;15.00;7.22;;;;;;;;;;5014535;28;20091;-86
2022/04/27 05:55:33;;;;;;;12.05;7.28;;;;;;;;;;5013442;28;20052;-87
2022/04/27 05:57:59;;;;;;;14.15;5.50;;;;;;;;;;5008317;28;20556;-87
2022/04/27 06:00:27;;;;;;;10.68;5.65;;;;;;;;;;4995016;28;20052;-87
2022/04/27 06:02:53;;;;;;;7.60;3.85;;;;;;;;;;5030762;28;20844;-88
2022/04/27 06:05:22;;;;;;;12.10;5.25;;;;;;;;;;5029470;28;20511;-88
2022/04/27 06:07:48;;;;;;;7.13;3.42;;;;;;;;;;5007198;28;20121;-87
2022/04/27 06:10:36;;;;;;;10.15;4.22;;;;;;;;;;5014697;28;20072;-87
2022/04/27 06:13:03;;;;;;;10.77;5.47;;;;;;;;;;5029227;28;20048;-86
2022/04/27 06:15:29;;;;;;;7.78;5.43;;;;;;;;;;5008957;28;20030;-87
2022/04/27 06:17:56;;;;;;;9.77;4.97;;;;;;;;;;5007674;28;20532;-87
2022/04/27 06:20:23;;;;;;;8.65;3.28;;;;;;;;;;5015446;28;20060;-87
2022/04/27 06:22:49;;;;;;;10.52;5.07;;;;;;;;;;5014784;28;20033;-87
2022/04/27 06:25:15;;;;;;;8.77;4.60;;;;;;;;;;5014905;28;20057;-87
2022/04/27 06:27:47;;;;;;;8.48;4.80;;;;;;;;;;5014872;28;20029;-87
2022/04/27 06:30:14;;;;;;;9.02;6.03;;;;;;;;;;5011304;28;20033;-88
2022/04/27 06:32:41;;;;;;;8.80;5.82;;;;;;;;;;5011975;28;20029;-86
2022/04/27 06:35:09;;;;;;;11.10;7.25;;;;;;;;;;5014229;28;20072;-88
2022/04/27 06:37:35;;;;;;;12.35;7.63;;;;;;;;;;5024662;28;20030;-87
2022/04/27 06:40:02;;;;;;;10.48;7.07;;;;;;;;;;5003605;28;20038;-87
2022/04/27 06:42:29;;;;;;;8.68;5.93;;;;;;;;;;5013406;28;20387;-87
2022/04/27 06:45:01;;;;;;;10.13;6.38;;;;;;;;;;5025881;28;20034;-86
2022/04/27 06:47:27;;;;;;;11.43;6.82;;;;;;;;;;5000453;28;20038;-86
2022/04/27 06:49:54;;;;;;;10.32;7.28;;;;;;;;;;5013467;28;20136;-87
2022/04/27 06:52:21;;;;;;;9.65;6.70;;;;;;;;;;5029445;28;20033;-86
2022/04/27 06:54:48;;;;;;;11.80;6.25;;;;;;;;;;5009007;28;20504;-85
2022/04/27 06:57:14;;;;;;;7.65;5.50;;;;;;;;;;5012755;28;20329;-86
2022/04/27 06:59:41;;;;;;;11.35;4.82;;;;;;;;;;5006531;28;20034;-86
2022/04/27 07:02:09;;;;;;;8.15;4.32;;;;;;;;;;5009343;28;20030;-86
2022/04/27 07:04:38;;;;;;;7.38;3.20;;;;;;;;;;5012269;28;20746;-86
2022/04/27 07:07:04;;;;;;;6.28;3.13;;;;;;;;;;5005114;28;20073;-86
2022/04/27 07:09:31;;;;;;;5.15;2.97;;;;;;;;;;5010404;28;20049;-86
2022/04/27 07:11:58;;;;;;;7.95;2.60;;;;;;;;;;5010844;28;20040;-85
2022/04/27 07:14:27;;;;;;;5.07;1.85;;;;;;;;;;5015920;28;20067;-85
2022/04/27 07:16:54;;;;;;;7.32;2.30;;;;;;;;;;5009358;28;20091;-86
2022/04/27 07:19:20;;;;;;;10.35;5.60;;;;;;;;;;5010693;28;20802;-86
2022/04/27 07:21:47;;;;;;;9.20;5.30;;;;;;;;;;5014934;28;20033;-86
2022/04/27 07:24:13;;;;;;;9.35;6.20;;;;;;;;;;5012816;28;20082;-87
2022/04/27 07:26:40;;;;;;;12.27;6.63;;;;;;;;;;5020502;28;20128;-86
2022/04/27 07:29:09;;;;;;;11.60;5.80;;;;;;;;;;5016900;28;20090;-87
2022/04/27 07:31:38;;;;;;;11.05;5.22;;;;;;;;;;5032858;28;20044;-87
2022/04/27 07:34:09;;;;;;;9.52;5.50;;;;;;;;;;5017588;28;20038;-87
2022/04/27 07:36:36;;;;;;;14.52;5.78;;;;;;;;;;5015727;28;20043;-87
2022/04/27 07:39:03;;;;;;;11.30;5.85;;;;;;;;;;5005228;28;20071;-88
2022/04/27 07:41:29;;;;;;;9.18;5.55;;;;;;;;;;5016266;28;20025;-87
2022/04/27 07:43:56;;;;;;;14.18;5.63;;;;;;;;;;5009562;28;20400;-87
2022/04/27 07:46:22;;;;;;;10.70;5.68;;;;;;;;;;5017548;28;20444;-86
2022/04/27 07:48:54;;;;;;;9.18;5.00;;;;;;;;;;5017173;28;20057;-87
2022/04/27 07:51:23;;;;;;;14.35;5.68;;;;;;;;;;5015871;28;20083;-87
2022/04/27 07:53:53;;;;;;;12.00;5.82;;;;;;;;;;5014929;28;20034;-87
2022/04/27 07:56:19;;;;;;;10.88;5.80;;;;;;;;;;5011358;28;20752;-88
2022/04/27 07:58:47;;;;;;;12.70;5.97;;;;;;;;;;5032541;28;20036;-87
2022/04/27 08:01:14;;;;;;;8.18;5.78;;;;;;;;;;5009474;28;20092;-86
2022/04/27 08:03:41;;;;;;;11.75;5.65;;;;;;;;;;5013302;28;20124;-87
2022/04/27 08:06:10;;;;;;;10.48;6.20;;;;;;;;;;5022196;28;20037;-89
2022/04/27 08:08:37;;;;;;;12.48;6.72;;;;;;;;;;5018508;28;20061;-88
2022/04/27 08:11:16;;;;;;;14.68;6.43;;;;;;;;;;5018716;28;20049;-90
2022/04/27 08:13:43;;;;;;;9.73;4.70;;;;;;;;;;5021439;28;20060;-89
2022/04/27 08:16:17;;;;;;;11.32;5.38;;;;;;;;;;5016804;28;20116;-88
2022/04/27 08:18:46;;;;;;;16.67;4.88;;;;;;;;;;5028541;28;20827;-88
2022/04/27 08:21:21;;;;;;;10.77;5.18;;;;;;;;;;5011246;28;20121;-88
2022/04/27 08:23:48;;;;;;;11.45;6.55;;;;;;;;;;5022911;28;20483;-85
2022/04/27 08:26:15;;;;;;;14.07;5.57;;;;;;;;;;5026413;28;20736;-85
2022/04/27 08:28:42;;;;;;;13.90;5.63;;;;;;;;;;5011060;28;20080;-85
2022/04/27 08:31:09;;;;;;;9.93;5.57;;;;;;;;;;5013089;28;20040;-86
2022/04/27 08:33:36;;;;;;;12.55;5.13;;;;;;;;;;5027877;28;20424;-86
2022/04/27 08:36:03;;;;;;;9.88;5.72;;;;;;;;;;5010363;28;20116;-86
2022/04/27 08:38:37;;;;;;;12.55;5.75;;;;;;;;;;5014517;28;20029;-85
2022/04/27 08:41:04;;;;;;;11.98;6.10;;;;;;;;;;5012419;28;20030;-85
2022/04/27 08:43:30;;;;;;;13.55;6.28;;;;;;;;;;5011034;28;20030;-86
2022/04/27 08:46:01;;;;;;;12.68;6.57;;;;;;;;;;5014483;28;20540;-86
2022/04/27 08:48:33;;;;;;;15.48;6.93;;;;;;;;;;5013154;28;20042;-85
2022/04/27 08:51:03;;;;;;;15.05;5.97;;;;;;;;;;5028877;28;20037;-86
2022/04/27 08:53:29;;;;;;;11.13;6.68;;;;;;;;;;5028513;28;20058;-86
2022/04/27 08:55:56;;;;;;;12.90;7.47;;;;;;;;;;5013940;28;20129;-86
2022/04/27 08:58:23;;;;;;;13.10;6.88;;;;;;;;;;5013673;28;20041;-86
2022/04/27 09:00:49;;;;;;;15.20;7.43;;;;;;;;;;5012809;28;20730;-87
2022/04/27 09:03:23;;;;;;;12.85;7.70;;;;;;;;;;5013995;28;20140;-87
2022/04/27 09:05:50;;;;;;;17.30;7.65;;;;;;;;;;5014722;28;20066;-86
2022/04/27 09:08:19;;;;;;;10.88;6.78;;;;;;;;;;5014031;28;20156;-87
2022/04/27 09:10:45;;;;;;;11.85;6.75;;;;;;;;;;5015187;28;20702;-86
2022/04/27 09:13:11;;;;;;;13.18;7.05;;;;;;;;;;5007141;28;20033;-86
2022/04/27 09:15:38;;;;;;;13.23;7.15;;;;;;;;;;5005008;28;20045;-85
2022/04/27 09:21:00;;;;;;;18.10;7.88;;;;;;;;;;5026013;28;20096;-86
2022/04/27 09:23:38;;;;;;;14.10;7.03;;;;;;;;;;5014089;28;20036;-86
2022/04/27 09:26:19;;;;;;;14.63;7.70;;;;;;;;;;5024848;28;20044;-93
2022/04/27 09:28:56;;;;;;;13.60;7.25;;;;;;;;;;5034208;28;20041;-94
2022/04/27 09:31:30;;;;;;;16.95;7.72;;;;;;;;;;5046668;28;21075;-92
2022/04/27 09:34:27;;;;;;;17.13;8.70;;;;;;;;;;5032439;28;20036;-92
2022/04/27 09:37:03;;;;;;;17.25;9.27;;;;;;;;;;5045581;28;20029;-94
2022/04/27 09:39:30;;;;;;;16.52;9.00;;;;;;;;;;5030145;28;20029;-93
2022/04/27 09:42:04;;;;;;;22.45;10.13;;;;;;;;;;5034559;28;20029;-92
2022/04/27 09:44:31;;;;;;;14.18;7.55;;;;;;;;;;5034456;28;20036;-94
2022/04/27 09:46:59;;;;;;;14.88;8.18;;;;;;;;;;5032164;28;20392;-90
2022/04/27 09:49:25;;;;;;;19.75;10.73;;;;;;;;;;5035451;28;20033;-89
2022/04/27 09:51:53;;;;;;;18.23;9.88;;;;;;;;;;5037807;28;20040;-91
2022/04/27 09:54:23;;;;;;;19.52;10.00;;;;;;;;;;5032140;28;20132;-90
2022/04/27 09:56:51;;;;;;;23.10;9.75;;;;;;;;;;5035694;28;20090;-91
2022/04/27 09:59:29;;;;;;;23.92;11.15;;;;;;;;;;5036471;28;20084;-92
2022/04/27 10:01:57;;;;;;;20.40;10.02;;;;;;;;;;5031625;28;20040;-91
2022/04/27 10:04:25;;;;;;;21.45;9.98;;;;;;;;;;5033864;28;20041;-92
2022/04/27 10:06:52;;;;;;;25.80;11.00;;;;;;;;;;5030951;28;20037;-92
2022/04/27 10:09:19;;;;;;;17.25;5.93;;;;;;;;;;5033155;28;20033;-94
2022/04/27 10:11:45;;;;;;;9.52;3.67;;;;;;;;;;5036419;28;20467;-92
2022/04/27 10:14:11;;;;;;;8.15;2.28;;;;;;;;;;5033105;28;20507;-92
2022/04/27 10:17:12;;;;;;;9.95;1.73;;;;;;;;;;5032034;28;20029;-91
2022/04/27 10:19:44;;;;;;;8.13;1.65;;;;;;;;;;5035338;28;20119;-94
2022/04/27 10:22:34;;;;;;;8.90;1.90;;;;;;;;;;5031344;28;20036;-92
2022/04/27 10:25:09;;;;;;;8.23;1.83;;;;;;;;;;5041289;28;20040;-93
2022/04/27 10:27:35;;;;;;;14.80;2.95;;;;;;;;;;5033712;28;20444;-90
2022/04/27 10:32:58;;;;;;;20.60;4.63;;;;;;;;;;5035692;28;20037;-96
2022/04/27 10:38:28;;;;;;;22.55;4.72;;;;;;;;;;5034741;28;20108;-96
2022/04/27 10:41:15;;;;;;;21.83;5.20;;;;;;;;;;5017049;28;20033;-96
2022/04/27 10:43:45;;;;;;;21.70;5.82;;;;;;;;;;5016993;28;20136;-96
2022/04/27 10:46:30;;;;;;;16.90;5.22;;;;;;;;;;5023086;28;20056;-96
2022/04/27 12:08:36;;;;;;;6.90;2.15;;;;;;;;;;996628;23;21661;-94
2022/04/27 12:11:02;;;;;;;5.43;1.92;;;;;;;;;;4972914;28;20061;-90
2022/04/27 12:13:30;;;;;;;6.82;2.97;;;;;;;;;;4981413;28;20062;-88
2022/04/27 12:15:56;;;;;;;9.18;2.90;;;;;;;;;;4989621;28;20042;-92
2022/04/27 12:18:25;;;;;;;9.15;2.33;;;;;;;;;;4978151;28;20030;-90
2022/04/27 12:20:55;;;;;;;7.40;3.20;;;;;;;;;;4977925;28;20045;-93
2022/04/27 12:23:25;;;;;;;9.52;2.20;;;;;;;;;;4994600;28;20482;-92
2022/04/27 12:25:55;;;;;;;4.13;1.38;;;;;;;;;;4992610;28;20041;-91
2022/04/27 12:28:30;;;;;;;8.30;1.50;;;;;;;;;;4977888;28;20034;-91
2022/04/27 12:30:57;;;;;;;2.63;0.45;;;;;;;;;;4986746;28;20034;-93
2022/04/27 12:33:43;;;;;;;2.17;0.25;;;;;;;;;;4989873;28;20050;-91
2022/04/27 12:38:56;;;;;;;0.90;0.10;;;;;;;;;;4987828;28;20507;-91
2022/04/27 12:41:32;;;;;;;2.08;0.10;;;;;;;;;;4976690;28;20034;-90
2022/04/27 12:44:12;;;;;;;2.92;0.20;;;;;;;;;;4977290;28;20038;-89
2022/04/27 12:46:55;;;;;;;1.52;0.22;;;;;;;;;;4977215;28;20041;-90
2022/04/27 12:49:41;;;;;;;1.35;0.10;;;;;;;;;;4988756;28;20034;-91
2022/04/27 12:52:35;;;;;;;2.88;0.40;;;;;;;;;;4990060;28;20678;-91
2022/04/27 12:55:02;;;;;;;2.28;0.32;;;;;;;;;;4976153;28;20050;-90
2022/04/27 12:57:45;;;;;;;1.27;0.35;;;;;;;;;;4992879;28;20122;-92
2022/04/27 13:00:12;;;;;;;1.88;0.40;;;;;;;;;;4975936;28;20038;-91
2022/04/27 13:02:38;;;;;;;3.88;0.50;;;;;;;;;;4989753;28;20488;-90
2022/04/27 13:05:05;;;;;;;2.95;0.22;;;;;;;;;;4976555;28;20121;-90
2022/04/27 13:07:32;;;;;;;1.67;0.45;;;;;;;;;;4974488;28;20449;-89
2022/04/27 13:12:53;;;;;;;0.65;0.20;;;;;;;;;;5011794;28;20033;-89
2022/04/27 13:15:43;;;;;;;0.75;0.15;;;;;;;;;;4993061;28;20042;-89
2022/04/27 13:18:09;;;;;;;1.08;0.22;;;;;;;;;;4997381;28;20132;-89
2022/04/27 13:20:39;;;;;;;1.60;0.35;;;;;;;;;;4996174;28;20038;-89
2022/04/27 13:23:06;;;;;;;3.67;0.30;;;;;;;;;;4996070;28;20041;-89
2022/04/27 13:25:41;;;;;;;2.08;0.77;;;;;;;;;;4989461;28;20080;-90
2022/04/27 13:28:07;;;;;;;1.77;0.47;;;;;;;;;;4993727;28;20038;-89
2022/04/27 13:30:34;;;;;;;2.63;0.47;;;;;;;;;;4996631;28;20033;-89
2022/04/27 13:33:00;;;;;;;4.95;0.73;;;;;;;;;;5012464;28;20041;-89
2022/04/27 13:35:29;;;;;;;3.22;0.75;;;;;;;;;;4990174;28;20501;-89
2022/04/27 13:37:55;;;;;;;2.53;0.80;;;;;;;;;;5009465;28;20031;-89
2022/04/27 13:40:25;;;;;;;3.83;0.98;;;;;;;;;;5002587;28;20080;-88
2022/04/27 13:42:52;;;;;;;4.35;0.80;;;;;;;;;;5006127;28;20038;-89
2022/04/27 13:45:25;;;;;;;5.18;0.82;;;;;;;;;;4994883;28;20397;-88
2022/04/27 13:47:51;;;;;;;4.25;1.20;;;;;;;;;;4999162;28;20040;-89
2022/04/27 13:50:23;;;;;;;1.90;0.60;;;;;;;;;;4995816;28;20061;-90
2022/04/27 13:52:50;;;;;;;7.13;1.40;;;;;;;;;;5012733;28;20172;-90
2022/04/27 13:55:22;;;;;;;4.40;0.85;;;;;;;;;;4989999;28;20041;-90
2022/04/27 13:57:48;;;;;;;5.50;1.20;;;;;;;;;;4996689;28;20045;-90
2022/04/27 14:00:31;;;;;;;5.40;1.63;;;;;;;;;;5015349;28;20034;-89
2022/04/27 14:02:57;;;;;;;3.95;1.50;;;;;;;;;;4994169;28;20050;-90
2022/04/27 14:05:38;;;;;;;6.30;1.60;;;;;;;;;;4996295;28;20385;-89
2022/04/27 14:08:05;;;;;;;3.30;1.27;;;;;;;;;;4988362;28;20034;-90
2022/04/27 14:10:31;;;;;;;5.47;2.03;;;;;;;;;;4986694;28;20046;-90
2022/04/27 14:13:17;;;;;;;7.75;3.13;;;;;;;;;;4988189;28;20040;-90
2022/04/27 14:18:49;;;;;;;12.45;6.88;;;;;;;;;;5015906;28;20111;-89
2022/04/27 14:21:15;;;;;;;10.07;5.85;;;;;;;;;;5011783;28;20041;-90
2022/04/27 14:23:42;;;;;;;11.77;6.13;;;;;;;;;;4997466;28;20056;-90
2022/04/27 14:29:08;;;;;;;11.02;4.57;;;;;;;;;;5016903;28;20030;-90
2022/04/27 14:31:55;;;;;;;9.38;4.85;;;;;;;;;;5004713;28;20045;-89
2022/04/27 14:34:22;;;;;;;12.90;5.18;;;;;;;;;;5000540;28;20030;-90
2022/04/27 14:36:55;;;;;;;12.82;5.30;;;;;;;;;;4995567;28;20034;-89
2022/04/27 14:39:22;;;;;;;14.90;4.88;;;;;;;;;;4994093;28;20030;-89
2022/04/27 14:41:48;;;;;;;13.82;6.07;;;;;;;;;;4993356;28;20060;-89
2022/04/27 14:44:17;;;;;;;11.10;4.97;;;;;;;;;;4996791;28;20053;-89
2022/04/27 14:46:44;;;;;;;11.05;5.05;;;;;;;;;;4996341;28;20026;-90
2022/04/27 14:49:15;;;;;;;12.73;5.70;;;;;;;;;;4996519;28;20517;-90
2022/04/27 14:51:42;;;;;;;10.73;4.70;;;;;;;;;;4993383;28;20069;-90
2022/04/27 14:54:09;;;;;;;9.18;4.20;;;;;;;;;;4997076;28;20029;-90
2022/04/27 14:56:47;;;;;;;12.88;3.70;;;;;;;;;;5001164;28;20038;-89
2022/04/27 14:59:13;;;;;;;9.98;3.78;;;;;;;;;;5009509;28;20026;-90
2022/04/27 15:01:52;;;;;;;16.23;4.25;;;;;;;;;;5016798;28;20109;-90
2022/04/27 15:04:18;;;;;;;9.27;3.80;;;;;;;;;;5001808;28;20129;-89
2022/04/27 15:06:46;;;;;;;9.90;3.95;;;;;;;;;;4996043;28;20041;-89
2022/04/27 15:09:25;;;;;;;14.85;3.95;;;;;;;;;;5014461;28;20397;-89
2022/04/27 15:11:52;;;;;;;8.32;3.05;;;;;;;;;;5009059;28;20041;-89
2022/04/27 15:14:18;;;;;;;10.60;3.10;;;;;;;;;;5008338;28;20397;-88
2022/04/27 15:16:45;;;;;;;8.82;2.40;;;;;;;;;;4993903;28;20033;-89
2022/04/27 15:19:18;;;;;;;15.15;2.92;;;;;;;;;;5006403;28;20038;-89
2022/04/27 15:24:49;;;;;;;10.70;2.72;;;;;;;;;;5013576;28;20068;-89
2022/04/27 15:27:16;;;;;;;8.35;2.88;;;;;;;;;;4992643;28;20057;-89
2022/04/27 15:29:49;;;;;;;13.02;3.72;;;;;;;;;;4985181;28;20058;-89
2022/04/27 15:32:15;;;;;;;9.85;3.30;;;;;;;;;;5010715;28;20096;-88
2022/04/27 15:35:07;;;;;;;7.07;2.65;;;;;;;;;;4993155;28;20056;-88
2022/04/27 15:37:45;;;;;;;8.20;3.05;;;;;;;;;;4967176;28;20440;-86
2022/04/27 15:40:12;;;;;;;8.57;2.90;;;;;;;;;;4994757;28;20063;-87
2022/04/27 15:42:48;;;;;;;9.48;3.40;;;;;;;;;;5010560;28;20030;-87
2022/04/27 15:45:15;;;;;;;10.05;4.32;;;;;;;;;;4995552;28;20038;-87
2022/04/27 15:48:00;;;;;;;7.20;2.88;;;;;;;;;;5015425;28;20045;-87
2022/04/27 15:50:34;;;;;;;8.32;3.20;;;;;;;;;;5015164;28;20092;-88
2022/04/27 15:53:14;;;;;;;7.70;3.97;;;;;;;;;;5009608;28;20118;-88
2022/04/27 15:55:56;;;;;;;7.60;3.33;;;;;;;;;;5015172;28;20045;-87
2022/04/27 15:58:22;;;;;;;7.90;3.72;;;;;;;;;;5006237;28;20036;-88
2022/04/27 16:00:55;;;;;;;8.02;3.97;;;;;;;;;;5014802;28;20026;-88
2022/04/27 16:03:22;;;;;;;15.93;4.97;;;;;;;;;;4982944;28;20054;-87
2022/04/27 16:06:20;;;;;;;10.23;4.45;;;;;;;;;;4998873;28;20045;-87
2022/04/27 16:08:53;;;;;;;14.45;6.43;;;;;;;;;;5003832;28;20576;-88
2022/04/27 16:11:20;;;;;;;12.93;6.18;;;;;;;;;;5003664;28;20057;-87
2022/04/27 16:14:04;;;;;;;13.25;6.85;;;;;;;;;;4987761;28;20503;-87
2022/04/27 16:16:30;;;;;;;19.73;6.30;;;;;;;;;;4994857;28;20035;-88
2022/04/27 16:19:00;;;;;;;17.58;7.85;;;;;;;;;;4990144;28;20061;-88
2022/04/27 16:24:12;;;;;;;14.48;6.32;;;;;;;;;;5010765;28;20069;-88
2022/04/27 16:27:00;;;;;;;16.73;7.85;;;;;;;;;;4993488;28;20084;-87
2022/04/27 16:29:27;;;;;;;17.67;7.55;;;;;;;;;;5015011;28;20040;-87
2022/04/27 16:31:56;;;;;;;15.27;8.05;;;;;;;;;;4997675;28;20033;-88
2022/04/27 16:34:23;;;;;;;22.38;9.45;;;;;;;;;;4997453;28;20030;-87
2022/04/27 16:37:02;;;;;;;21.48;9.82;;;;;;;;;;4997933;28;20038;-88
2022/04/27 16:39:33;;;;;;;18.27;8.98;;;;;;;;;;5009026;28;20026;-87
2022/04/27 16:41:59;;;;;;;21.67;9.32;;;;;;;;;;4996167;28;20445;-88
2022/04/27 16:44:33;;;;;;;19.20;9.23;;;;;;;;;;4997843;28;20663;-88
2022/04/27 16:47:00;;;;;;;20.13;9.77;;;;;;;;;;5011968;28;20029;-88